sensor_id;sensor_type;location;lat;lon;timestamp;pressure;altitude;pressure_sealevel;temperature;humidity
64908;BME280;69061;52.236;5.188;2023-11-22T00:02:26;102781.56;;;9.00;87.75
64908;BME280;69061;52.236;5.188;2023-11-22T00:04:55;102786.25;;;9.03;87.97
64908;BME280;69061;52.236;5.188;2023-11-22T00:07:23;102784.22;;;9.00;90.01
64908;BME280;69061;52.236;5.188;2023-11-22T00:09:49;102783.56;;;8.95;93.05
64908;BME280;69061;52.236;5.188;2023-11-22T00:12:18;102793.69;;;8.92;94.94
64908;BME280;69061;52.236;5.188;2023-11-22T00:14:44;102807.13;;;8.96;93.58
64908;BME280;69061;52.236;5.188;2023-11-22T00:17:12;102803.56;;;9.01;90.89
64908;BME280;69061;52.236;5.188;2023-11-22T00:19:39;102801.09;;;9.04;90.45
64908;BME280;69061;52.236;5.188;2023-11-22T00:22:07;102797.69;;;9.04;91.57
64908;BME280;69061;52.236;5.188;2023-11-22T00:24:38;102803.44;;;9.06;90.85
64908;BME280;69061;52.236;5.188;2023-11-22T00:27:05;102798.31;;;9.09;89.89
64908;BME280;69061;52.236;5.188;2023-11-22T00:29:31;102810.31;;;9.07;90.50
64908;BME280;69061;52.236;5.188;2023-11-22T00:31:58;102798.13;;;9.06;89.90
64908;BME280;69061;52.236;5.188;2023-11-22T00:34:25;102807.38;;;9.08;90.16
64908;BME280;69061;52.236;5.188;2023-11-22T00:36:51;102805.47;;;9.09;90.10
64908;BME280;69061;52.236;5.188;2023-11-22T00:39:20;102791.91;;;9.10;89.20
64908;BME280;69061;52.236;5.188;2023-11-22T00:41:47;102788.19;;;9.12;88.68
64908;BME280;69061;52.236;5.188;2023-11-22T00:44:14;102790.97;;;9.06;91.80
64908;BME280;69061;52.236;5.188;2023-11-22T00:46:41;102796.09;;;9.03;90.43
64908;BME280;69061;52.236;5.188;2023-11-22T00:49:10;102810.75;;;9.00;89.06
64908;BME280;69061;52.236;5.188;2023-11-22T00:51:38;102810.88;;;8.95;91.92
64908;BME280;69061;52.236;5.188;2023-11-22T00:54:05;102815.41;;;8.95;89.99
64908;BME280;69061;52.236;5.188;2023-11-22T00:56:33;102808.63;;;8.88;88.25
64908;BME280;69061;52.236;5.188;2023-11-22T00:59:00;102816.28;;;8.90;87.48
64908;BME280;69061;52.236;5.188;2023-11-22T01:01:29;102833.28;;;8.89;88.60
64908;BME280;69061;52.236;5.188;2023-11-22T01:03:56;102832.44;;;8.80;92.15
64908;BME280;69061;52.236;5.188;2023-11-22T01:06:23;102845.50;;;8.76;89.91
64908;BME280;69061;52.236;5.188;2023-11-22T01:08:49;102857.69;;;8.77;88.39
64908;BME280;69061;52.236;5.188;2023-11-22T01:11:16;102869.69;;;8.74;90.33
64908;BME280;69061;52.236;5.188;2023-11-22T01:13:44;102873.72;;;8.72;90.97
64908;BME280;69061;52.236;5.188;2023-11-22T01:16:11;102871.94;;;8.67;88.46
64908;BME280;69061;52.236;5.188;2023-11-22T01:18:39;102872.84;;;8.63;86.82
64908;BME280;69061;52.236;5.188;2023-11-22T01:21:06;102870.50;;;8.61;85.71
64908;BME280;69061;52.236;5.188;2023-11-22T01:23:33;102870.31;;;8.57;86.19
64908;BME280;69061;52.236;5.188;2023-11-22T01:26:00;102869.44;;;8.48;87.18
64908;BME280;69061;52.236;5.188;2023-11-22T01:28:28;102879.94;;;8.39;88.72
64908;BME280;69061;52.236;5.188;2023-11-22T01:31:01;102883.88;;;8.28;92.05
64908;BME280;69061;52.236;5.188;2023-11-22T01:33:27;102876.72;;;8.29;93.46
64908;BME280;69061;52.236;5.188;2023-11-22T01:35:54;102869.84;;;8.27;91.83
64908;BME280;69061;52.236;5.188;2023-11-22T01:38:21;102864.84;;;8.26;88.97
64908;BME280;69061;52.236;5.188;2023-11-22T01:40:51;102873.28;;;8.28;87.38
64908;BME280;69061;52.236;5.188;2023-11-22T01:43:19;102877.78;;;8.27;87.60
64908;BME280;69061;52.236;5.188;2023-11-22T01:45:46;102872.00;;;8.25;87.12
64908;BME280;69061;52.236;5.188;2023-11-22T01:48:15;102872.41;;;8.19;88.69
64908;BME280;69061;52.236;5.188;2023-11-22T01:50:42;102863.75;;;8.13;86.75
64908;BME280;69061;52.236;5.188;2023-11-22T01:53:11;102871.44;;;8.15;86.57
64908;BME280;69061;52.236;5.188;2023-11-22T01:55:39;102876.00;;;8.09;90.03
64908;BME280;69061;52.236;5.188;2023-11-22T01:58:06;102881.13;;;8.05;88.24
64908;BME280;69061;52.236;5.188;2023-11-22T02:00:36;102875.63;;;8.02;86.03
64908;BME280;69061;52.236;5.188;2023-11-22T02:03:08;102873.50;;;8.04;86.06
64908;BME280;69061;52.236;5.188;2023-11-22T02:05:39;102867.97;;;8.00;87.50
64908;BME280;69061;52.236;5.188;2023-11-22T02:08:07;102877.81;;;8.00;87.15
64908;BME280;69061;52.236;5.188;2023-11-22T02:10:34;102877.38;;;7.92;87.59
64908;BME280;69061;52.236;5.188;2023-11-22T02:13:01;102884.84;;;7.90;90.57
64908;BME280;69061;52.236;5.188;2023-11-22T02:15:30;102880.13;;;7.87;90.73
64908;BME280;69061;52.236;5.188;2023-11-22T02:17:58;102880.13;;;7.87;89.03
64908;BME280;69061;52.236;5.188;2023-11-22T02:20:25;102880.41;;;7.86;86.87
64908;BME280;69061;52.236;5.188;2023-11-22T02:22:54;102882.59;;;7.84;86.03
64908;BME280;69061;52.236;5.188;2023-11-22T02:25:22;102872.31;;;7.82;84.98
64908;BME280;69061;52.236;5.188;2023-11-22T02:27:49;102867.00;;;7.82;85.98
64908;BME280;69061;52.236;5.188;2023-11-22T02:30:17;102869.16;;;7.80;85.31
64908;BME280;69061;52.236;5.188;2023-11-22T02:32:44;102862.56;;;7.78;84.78
64908;BME280;69061;52.236;5.188;2023-11-22T02:35:11;102857.56;;;7.76;84.89
64908;BME280;69061;52.236;5.188;2023-11-22T02:37:38;102867.69;;;7.74;84.49
64908;BME280;69061;52.236;5.188;2023-11-22T02:40:06;102868.25;;;7.71;85.80
64908;BME280;69061;52.236;5.188;2023-11-22T02:42:37;102867.56;;;7.65;86.21
64908;BME280;69061;52.236;5.188;2023-11-22T02:45:05;102876.38;;;7.61;88.94
64908;BME280;69061;52.236;5.188;2023-11-22T02:47:32;102874.03;;;7.59;87.60
64908;BME280;69061;52.236;5.188;2023-11-22T02:50:00;102872.16;;;7.59;87.25
64908;BME280;69061;52.236;5.188;2023-11-22T02:52:27;102874.50;;;7.61;85.46
64908;BME280;69061;52.236;5.188;2023-11-22T02:54:54;102863.72;;;7.57;85.82
64908;BME280;69061;52.236;5.188;2023-11-22T02:57:20;102862.25;;;7.51;87.68
64908;BME280;69061;52.236;5.188;2023-11-22T02:59:48;102854.09;;;7.48;87.17
64908;BME280;69061;52.236;5.188;2023-11-22T03:02:15;102867.34;;;7.48;87.76
64908;BME280;69061;52.236;5.188;2023-11-22T03:04:42;102864.97;;;7.46;88.18
64908;BME280;69061;52.236;5.188;2023-11-22T03:07:09;102867.13;;;7.44;87.88
64908;BME280;69061;52.236;5.188;2023-11-22T03:09:36;102868.22;;;7.43;89.71
64908;BME280;69061;52.236;5.188;2023-11-22T03:12:03;102872.50;;;7.39;87.31
64908;BME280;69061;52.236;5.188;2023-11-22T03:14:30;102880.44;;;7.39;90.52
64908;BME280;69061;52.236;5.188;2023-11-22T03:16:58;102873.59;;;7.38;90.59
64908;BME280;69061;52.236;5.188;2023-11-22T03:19:24;102870.94;;;7.38;90.98
64908;BME280;69061;52.236;5.188;2023-11-22T03:21:51;102884.16;;;7.38;92.20
64908;BME280;69061;52.236;5.188;2023-11-22T03:24:17;102883.38;;;7.37;89.76
64908;BME280;69061;52.236;5.188;2023-11-22T03:26:44;102887.28;;;7.40;93.57
64908;BME280;69061;52.236;5.188;2023-11-22T03:29:11;102897.59;;;7.41;94.55
64908;BME280;69061;52.236;5.188;2023-11-22T03:31:37;102903.88;;;7.46;95.55
64908;BME280;69061;52.236;5.188;2023-11-22T03:34:06;102908.97;;;7.42;95.12
64908;BME280;69061;52.236;5.188;2023-11-22T03:36:33;102906.53;;;7.46;95.35
64908;BME280;69061;52.236;5.188;2023-11-22T03:38:59;102918.88;;;7.50;95.78
64908;BME280;69061;52.236;5.188;2023-11-22T03:41:26;102931.34;;;7.50;97.27
64908;BME280;69061;52.236;5.188;2023-11-22T03:43:52;102928.69;;;7.50;96.64
64908;BME280;69061;52.236;5.188;2023-11-22T03:46:19;102929.06;;;7.43;96.10
64908;BME280;69061;52.236;5.188;2023-11-22T03:48:46;102939.66;;;7.43;97.32
64908;BME280;69061;52.236;5.188;2023-11-22T03:51:14;102939.13;;;7.41;95.70
64908;BME280;69061;52.236;5.188;2023-11-22T03:53:41;102937.06;;;7.38;95.44
64908;BME280;69061;52.236;5.188;2023-11-22T03:56:08;102942.16;;;7.34;95.86
64908;BME280;69061;52.236;5.188;2023-11-22T03:58:34;102944.66;;;7.25;97.18
64908;BME280;69061;52.236;5.188;2023-11-22T04:01:01;102940.38;;;7.30;98.26
64908;BME280;69061;52.236;5.188;2023-11-22T04:03:28;102941.44;;;7.29;97.73
64908;BME280;69061;52.236;5.188;2023-11-22T04:05:55;102943.31;;;7.28;98.45
64908;BME280;69061;52.236;5.188;2023-11-22T04:08:23;102956.25;;;7.30;98.27
64908;BME280;69061;52.236;5.188;2023-11-22T04:10:50;102953.88;;;7.28;97.84
64908;BME280;69061;52.236;5.188;2023-11-22T04:13:17;102951.53;;;7.27;96.51
64908;BME280;69061;52.236;5.188;2023-11-22T04:15:43;102954.59;;;7.34;93.75
64908;BME280;69061;52.236;5.188;2023-11-22T04:18:10;102958.72;;;7.40;92.62
64908;BME280;69061;52.236;5.188;2023-11-22T04:20:36;102959.44;;;7.46;91.84
64908;BME280;69061;52.236;5.188;2023-11-22T04:23:03;102977.69;;;7.47;89.45
64908;BME280;69061;52.236;5.188;2023-11-22T04:25:31;102964.94;;;7.49;87.41
64908;BME280;69061;52.236;5.188;2023-11-22T04:27:59;102968.88;;;7.52;89.51
64908;BME280;69061;52.236;5.188;2023-11-22T04:30:26;102962.00;;;7.51;91.33
64908;BME280;69061;52.236;5.188;2023-11-22T04:32:53;102971.03;;;7.50;91.51
64908;BME280;69061;52.236;5.188;2023-11-22T04:35:20;102976.03;;;7.51;91.60
64908;BME280;69061;52.236;5.188;2023-11-22T04:37:47;102972.78;;;7.54;90.89
64908;BME280;69061;52.236;5.188;2023-11-22T04:40:14;102977.78;;;7.56;92.85
64908;BME280;69061;52.236;5.188;2023-11-22T04:42:42;102985.75;;;7.56;92.09
64908;BME280;69061;52.236;5.188;2023-11-22T04:45:09;102976.66;;;7.62;92.73
64908;BME280;69061;52.236;5.188;2023-11-22T04:47:36;102975.28;;;7.65;94.17
64908;BME280;69061;52.236;5.188;2023-11-22T04:50:03;102972.38;;;7.80;95.54
64908;BME280;69061;52.236;5.188;2023-11-22T04:52:30;102969.75;;;7.80;95.16
64908;BME280;69061;52.236;5.188;2023-11-22T04:54:57;102966.31;;;7.80;93.20
64908;BME280;69061;52.236;5.188;2023-11-22T04:57:24;102972.16;;;7.76;90.59
64908;BME280;69061;52.236;5.188;2023-11-22T04:59:52;102966.69;;;7.73;90.84
64908;BME280;69061;52.236;5.188;2023-11-22T05:02:19;102968.06;;;7.70;92.16
64908;BME280;69061;52.236;5.188;2023-11-22T05:04:46;102968.81;;;7.71;90.75
64908;BME280;69061;52.236;5.188;2023-11-22T05:07:14;102963.06;;;7.69;92.17
64908;BME280;69061;52.236;5.188;2023-11-22T05:09:41;102969.41;;;7.68;91.15
64908;BME280;69061;52.236;5.188;2023-11-22T05:12:08;102956.59;;;7.75;91.93
64908;BME280;69061;52.236;5.188;2023-11-22T05:14:35;102958.56;;;7.83;94.39
64908;BME280;69061;52.236;5.188;2023-11-22T05:17:03;102966.78;;;7.82;93.47
64908;BME280;69061;52.236;5.188;2023-11-22T05:19:30;102975.03;;;7.80;93.70
64908;BME280;69061;52.236;5.188;2023-11-22T05:21:57;102976.69;;;7.76;90.63
64908;BME280;69061;52.236;5.188;2023-11-22T05:24:24;102955.59;;;7.71;91.29
64908;BME280;69061;52.236;5.188;2023-11-22T05:26:50;102938.44;;;7.68;89.71
64908;BME280;69061;52.236;5.188;2023-11-22T05:29:17;102939.22;;;7.69;89.55
64908;BME280;69061;52.236;5.188;2023-11-22T05:31:43;102953.25;;;7.69;89.11
64908;BME280;69061;52.236;5.188;2023-11-22T05:34:12;102957.75;;;7.69;89.31
64908;BME280;69061;52.236;5.188;2023-11-22T05:36:38;102955.41;;;7.67;89.35
64908;BME280;69061;52.236;5.188;2023-11-22T05:39:05;102972.66;;;7.65;91.86
64908;BME280;69061;52.236;5.188;2023-11-22T05:41:32;102967.34;;;7.65;88.44
64908;BME280;69061;52.236;5.188;2023-11-22T05:43:58;102973.22;;;7.62;88.92
64908;BME280;69061;52.236;5.188;2023-11-22T05:46:25;102982.13;;;7.66;89.45
64908;BME280;69061;52.236;5.188;2023-11-22T05:48:52;102985.59;;;7.66;87.43
64908;BME280;69061;52.236;5.188;2023-11-22T05:51:20;102982.94;;;7.66;86.94
64908;BME280;69061;52.236;5.188;2023-11-22T05:53:47;102981.28;;;7.70;87.11
64908;BME280;69061;52.236;5.188;2023-11-22T05:56:14;102980.13;;;7.76;87.79
64908;BME280;69061;52.236;5.188;2023-11-22T05:58:42;102971.63;;;7.80;87.35
64908;BME280;69061;52.236;5.188;2023-11-22T06:01:09;102966.19;;;7.71;86.91
64908;BME280;69061;52.236;5.188;2023-11-22T06:03:37;102987.34;;;7.71;86.07
64908;BME280;69061;52.236;5.188;2023-11-22T06:06:04;102991.09;;;7.70;86.87
64908;BME280;69061;52.236;5.188;2023-11-22T06:08:33;102996.66;;;7.68;86.14
64908;BME280;69061;52.236;5.188;2023-11-22T06:10:59;102999.88;;;7.65;88.23
64908;BME280;69061;52.236;5.188;2023-11-22T06:13:26;103006.75;;;7.66;89.30
64908;BME280;69061;52.236;5.188;2023-11-22T06:15:53;103007.81;;;7.65;87.56
64908;BME280;69061;52.236;5.188;2023-11-22T06:18:20;103006.53;;;7.63;86.63
64908;BME280;69061;52.236;5.188;2023-11-22T06:20:47;103014.19;;;7.64;88.18
64908;BME280;69061;52.236;5.188;2023-11-22T06:23:13;103015.00;;;7.65;87.90
64908;BME280;69061;52.236;5.188;2023-11-22T06:25:41;103023.84;;;7.74;90.64
64908;BME280;69061;52.236;5.188;2023-11-22T06:28:09;103019.81;;;7.76;89.23
64908;BME280;69061;52.236;5.188;2023-11-22T06:30:35;103008.44;;;7.76;88.32
64908;BME280;69061;52.236;5.188;2023-11-22T06:33:02;103002.88;;;7.78;87.48
64908;BME280;69061;52.236;5.188;2023-11-22T06:35:29;102994.16;;;7.77;86.30
64908;BME280;69061;52.236;5.188;2023-11-22T06:37:55;102997.28;;;7.79;86.80
64908;BME280;69061;52.236;5.188;2023-11-22T06:40:22;102995.06;;;7.86;87.23
64908;BME280;69061;52.236;5.188;2023-11-22T06:42:50;102982.38;;;7.83;88.17
64908;BME280;69061;52.236;5.188;2023-11-22T06:45:20;102977.44;;;7.96;88.69
64908;BME280;69061;52.236;5.188;2023-11-22T06:47:46;102978.31;;;8.05;88.81
64908;BME280;69061;52.236;5.188;2023-11-22T06:50:14;102976.34;;;7.97;86.58
64908;BME280;69061;52.236;5.188;2023-11-22T06:52:41;102961.81;;;7.94;87.23
64908;BME280;69061;52.236;5.188;2023-11-22T06:55:09;102984.50;;;8.00;85.30
64908;BME280;69061;52.236;5.188;2023-11-22T06:57:36;102975.78;;;8.00;87.06
64908;BME280;69061;52.236;5.188;2023-11-22T07:00:07;102978.44;;;8.00;86.29
64908;BME280;69061;52.236;5.188;2023-11-22T07:02:35;102995.09;;;8.00;86.14
64908;BME280;69061;52.236;5.188;2023-11-22T07:05:01;102992.16;;;8.02;86.76
64908;BME280;69061;52.236;5.188;2023-11-22T07:07:29;103001.66;;;8.03;86.72
64908;BME280;69061;52.236;5.188;2023-11-22T07:09:56;103007.44;;;8.05;86.63
64908;BME280;69061;52.236;5.188;2023-11-22T07:12:23;103009.09;;;8.01;87.07
64908;BME280;69061;52.236;5.188;2023-11-22T07:14:53;103012.03;;;7.99;85.48
64908;BME280;69061;52.236;5.188;2023-11-22T07:17:22;103004.09;;;7.99;84.99
64908;BME280;69061;52.236;5.188;2023-11-22T07:19:50;102997.44;;;8.02;85.86
64908;BME280;69061;52.236;5.188;2023-11-22T07:22:17;102996.66;;;8.01;86.73
64908;BME280;69061;52.236;5.188;2023-11-22T07:24:45;103003.03;;;8.00;86.47
64908;BME280;69061;52.236;5.188;2023-11-22T07:27:17;103000.97;;;7.97;85.74
64908;BME280;69061;52.236;5.188;2023-11-22T07:29:44;103004.91;;;8.00;84.94
64908;BME280;69061;52.236;5.188;2023-11-22T07:32:12;103003.31;;;7.99;84.50
64908;BME280;69061;52.236;5.188;2023-11-22T07:34:40;103010.97;;;8.00;83.97
64908;BME280;69061;52.236;5.188;2023-11-22T07:37:07;103010.97;;;8.00;82.99
64908;BME280;69061;52.236;5.188;2023-11-22T07:39:34;103002.44;;;8.03;83.41
64908;BME280;69061;52.236;5.188;2023-11-22T07:42:01;103005.09;;;8.03;84.98
64908;BME280;69061;52.236;5.188;2023-11-22T07:44:28;103004.72;;;8.10;85.75
64908;BME280;69061;52.236;5.188;2023-11-22T07:46:58;103004.72;;;8.10;84.95
64908;BME280;69061;52.236;5.188;2023-11-22T07:49:24;103005.53;;;8.11;85.06
64908;BME280;69061;52.236;5.188;2023-11-22T07:51:53;103016.81;;;8.16;85.33
64908;BME280;69061;52.236;5.188;2023-11-22T07:54:20;103019.25;;;8.13;86.17
64908;BME280;69061;52.236;5.188;2023-11-22T07:56:47;103035.13;;;8.13;85.26
64908;BME280;69061;52.236;5.188;2023-11-22T07:59:14;103046.31;;;8.09;88.15
64908;BME280;69061;52.236;5.188;2023-11-22T08:01:42;103059.09;;;8.21;87.33
64908;BME280;69061;52.236;5.188;2023-11-22T08:04:09;103068.72;;;8.17;87.80
64908;BME280;69061;52.236;5.188;2023-11-22T08:06:41;103057.53;;;8.20;88.01
64908;BME280;69061;52.236;5.188;2023-11-22T08:09:09;103070.84;;;8.15;85.74
64908;BME280;69061;52.236;5.188;2023-11-22T08:11:36;103067.13;;;8.16;87.43
64908;BME280;69061;52.236;5.188;2023-11-22T08:14:03;103054.44;;;8.13;85.41
64908;BME280;69061;52.236;5.188;2023-11-22T08:16:31;103049.75;;;8.10;84.99
64908;BME280;69061;52.236;5.188;2023-11-22T08:18:57;103041.41;;;8.17;86.93
64908;BME280;69061;52.236;5.188;2023-11-22T08:21:24;103060.66;;;8.22;87.70
64908;BME280;69061;52.236;5.188;2023-11-22T08:23:51;103070.47;;;8.22;87.65
64908;BME280;69061;52.236;5.188;2023-11-22T08:26:20;103072.53;;;8.25;86.50
64908;BME280;69061;52.236;5.188;2023-11-22T08:28:47;103081.19;;;8.31;86.06
64908;BME280;69061;52.236;5.188;2023-11-22T08:31:13;103071.47;;;8.40;86.32
64908;BME280;69061;52.236;5.188;2023-11-22T08:33:41;103071.34;;;8.50;86.74
64908;BME280;69061;52.236;5.188;2023-11-22T08:36:09;103064.47;;;8.63;87.12
64908;BME280;69061;52.236;5.188;2023-11-22T08:38:36;103067.53;;;8.70;85.47
64908;BME280;69061;52.236;5.188;2023-11-22T08:41:06;103058.38;;;8.76;86.26
64908;BME280;69061;52.236;5.188;2023-11-22T08:43:35;103060.47;;;8.80;86.65
64908;BME280;69061;52.236;5.188;2023-11-22T08:46:02;103059.56;;;8.84;85.46
64908;BME280;69061;52.236;5.188;2023-11-22T08:48:29;103048.56;;;8.91;85.21
64908;BME280;69061;52.236;5.188;2023-11-22T08:50:56;103040.22;;;8.98;85.76
64908;BME280;69061;52.236;5.188;2023-11-22T08:53:23;103036.75;;;9.11;85.64
64908;BME280;69061;52.236;5.188;2023-11-22T08:55:50;103039.41;;;9.11;83.68
64908;BME280;69061;52.236;5.188;2023-11-22T08:58:17;103047.38;;;9.11;84.11
64908;BME280;69061;52.236;5.188;2023-11-22T09:00:45;103036.19;;;9.00;83.12
64908;BME280;69061;52.236;5.188;2023-11-22T09:03:12;103048.53;;;9.05;83.02
64908;BME280;69061;52.236;5.188;2023-11-22T09:05:39;103046.28;;;9.12;83.84
64908;BME280;69061;52.236;5.188;2023-11-22T09:08:05;103040.69;;;9.14;84.60
64908;BME280;69061;52.236;5.188;2023-11-22T09:10:39;103049.53;;;9.23;83.14
64908;BME280;69061;52.236;5.188;2023-11-22T09:13:06;103047.69;;;9.32;83.21
64908;BME280;69061;52.236;5.188;2023-11-22T09:15:32;103048.75;;;9.45;83.30
64908;BME280;69061;52.236;5.188;2023-11-22T09:18:02;103066.56;;;9.44;81.44
64908;BME280;69061;52.236;5.188;2023-11-22T09:20:29;103072.72;;;9.54;83.18
64908;BME280;69061;52.236;5.188;2023-11-22T09:22:56;103071.63;;;9.55;84.08
64908;BME280;69061;52.236;5.188;2023-11-22T09:25:24;103072.19;;;9.66;83.96
64908;BME280;69061;52.236;5.188;2023-11-22T09:27:52;103079.84;;;9.67;83.42
64908;BME280;69061;52.236;5.188;2023-11-22T09:30:22;103087.09;;;9.75;85.14
64908;BME280;69061;52.236;5.188;2023-11-22T09:33:02;103078.84;;;9.77;84.13
64908;BME280;69061;52.236;5.188;2023-11-22T09:35:31;103085.13;;;9.81;83.69
64908;BME280;69061;52.236;5.188;2023-11-22T09:37:58;103078.84;;;9.77;82.84
64908;BME280;69061;52.236;5.188;2023-11-22T09:40:25;103075.88;;;9.78;81.76
64908;BME280;69061;52.236;5.188;2023-11-22T09:42:52;103071.00;;;9.72;83.39
64908;BME280;69061;52.236;5.188;2023-11-22T09:45:21;103072.56;;;9.73;82.29
64908;BME280;69061;52.236;5.188;2023-11-22T09:47:48;103070.38;;;9.75;83.18
64908;BME280;69061;52.236;5.188;2023-11-22T09:50:19;103078.34;;;9.75;83.94
64908;BME280;69061;52.236;5.188;2023-11-22T09:52:50;103061.47;;;9.71;80.54
64908;BME280;69061;52.236;5.188;2023-11-22T09:55:20;103052.53;;;9.67;81.92
64908;BME280;69061;52.236;5.188;2023-11-22T09:57:49;103053.28;;;9.67;81.60
64908;BME280;69061;52.236;5.188;2023-11-22T10:00:16;103049.09;;;9.66;82.07
64908;BME280;69061;52.236;5.188;2023-11-22T10:02:44;103046.59;;;9.70;82.70
64908;BME280;69061;52.236;5.188;2023-11-22T10:05:12;103043.63;;;9.71;83.52
64908;BME280;69061;52.236;5.188;2023-11-22T10:07:39;103038.28;;;9.63;83.11
64908;BME280;69061;52.236;5.188;2023-11-22T10:10:07;103037.97;;;9.64;83.01
64908;BME280;69061;52.236;5.188;2023-11-22T10:12:36;103046.13;;;9.68;82.20
64908;BME280;69061;52.236;5.188;2023-11-22T10:15:12;103033.63;;;9.68;83.85
64908;BME280;69061;52.236;5.188;2023-11-22T10:17:38;103057.72;;;9.72;83.89
64908;BME280;69061;52.236;5.188;2023-11-22T10:20:06;103065.78;;;9.67;82.70
64908;BME280;69061;52.236;5.188;2023-11-22T10:22:44;103050.22;;;9.74;83.23
64908;BME280;69061;52.236;5.188;2023-11-22T10:25:13;103044.78;;;9.56;81.63
64908;BME280;69061;52.236;5.188;2023-11-22T10:27:44;103052.88;;;9.51;81.42
64908;BME280;69061;52.236;5.188;2023-11-22T10:30:11;103038.50;;;9.52;81.04
64908;BME280;69061;52.236;5.188;2023-11-22T10:32:41;103023.06;;;9.54;83.40
64908;BME280;69061;52.236;5.188;2023-11-22T10:35:08;103011.06;;;9.57;83.35
64908;BME280;69061;52.236;5.188;2023-11-22T10:37:35;103009.94;;;9.72;83.87
64908;BME280;69061;52.236;5.188;2023-11-22T10:40:04;103010.38;;;9.74;83.97
64908;BME280;69061;52.236;5.188;2023-11-22T10:42:33;103010.50;;;9.91;82.63
64908;BME280;69061;52.236;5.188;2023-11-22T10:45:00;103014.63;;;10.06;81.56
64908;BME280;69061;52.236;5.188;2023-11-22T10:47:29;103016.09;;;10.13;81.29
64908;BME280;69061;52.236;5.188;2023-11-22T10:49:56;103017.69;;;10.22;80.25
64908;BME280;69061;52.236;5.188;2023-11-22T10:52:27;103012.25;;;10.27;78.89
64908;BME280;69061;52.236;5.188;2023-11-22T10:54:59;102999.72;;;10.19;80.39
64908;BME280;69061;52.236;5.188;2023-11-22T10:57:31;102998.44;;;10.17;79.79
64908;BME280;69061;52.236;5.188;2023-11-22T11:00:04;102998.91;;;10.19;79.34
64908;BME280;69061;52.236;5.188;2023-11-22T11:02:36;102994.41;;;10.28;79.44
64908;BME280;69061;52.236;5.188;2023-11-22T11:05:10;102983.97;;;10.32;78.69
64908;BME280;69061;52.236;5.188;2023-11-22T11:07:42;102974.09;;;10.32;79.26
64908;BME280;69061;52.236;5.188;2023-11-22T11:10:12;102957.06;;;10.24;78.50
64908;BME280;69061;52.236;5.188;2023-11-22T11:12:41;102965.41;;;10.09;77.48
64908;BME280;69061;52.236;5.188;2023-11-22T11:15:09;102963.06;;;9.99;79.23
64908;BME280;69061;52.236;5.188;2023-11-22T11:17:36;102960.47;;;9.85;81.07
64908;BME280;69061;52.236;5.188;2023-11-22T11:20:05;102943.25;;;9.82;81.33
64908;BME280;69061;52.236;5.188;2023-11-22T11:22:35;102933.78;;;9.90;81.50
64908;BME280;69061;52.236;5.188;2023-11-22T11:25:04;102930.16;;;9.86;80.13
64908;BME280;69061;52.236;5.188;2023-11-22T11:27:33;102931.22;;;9.76;78.75
64908;BME280;69061;52.236;5.188;2023-11-22T11:30:42;102930.38;;;9.67;80.23
64908;BME280;69061;52.236;5.188;2023-11-22T11:33:10;102928.81;;;9.66;80.87
64908;BME280;69061;52.236;5.188;2023-11-22T11:35:38;102925.50;;;9.60;80.09
64908;BME280;69061;52.236;5.188;2023-11-22T11:38:05;102921.06;;;9.47;79.33
64908;BME280;69061;52.236;5.188;2023-11-22T11:40:35;102927.28;;;9.42;81.17
64908;BME280;69061;52.236;5.188;2023-11-22T11:43:04;102924.19;;;9.49;81.94
64908;BME280;69061;52.236;5.188;2023-11-22T11:45:36;102926.72;;;9.54;81.77
64908;BME280;69061;52.236;5.188;2023-11-22T11:48:06;102921.28;;;9.59;80.97
64908;BME280;69061;52.236;5.188;2023-11-22T11:50:33;102918.72;;;9.76;83.05
64908;BME280;69061;52.236;5.188;2023-11-22T11:53:01;102913.94;;;9.87;81.17
64908;BME280;69061;52.236;5.188;2023-11-22T11:55:30;102919.41;;;9.91;80.53
64908;BME280;69061;52.236;5.188;2023-11-22T11:58:04;102909.13;;;9.98;80.64
64908;BME280;69061;52.236;5.188;2023-11-22T12:00:33;102915.88;;;10.13;81.51
64908;BME280;69061;52.236;5.188;2023-11-22T12:02:59;102908.91;;;10.26;80.72
64908;BME280;69061;52.236;5.188;2023-11-22T12:05:28;102896.94;;;10.46;82.25
64908;BME280;69061;52.236;5.188;2023-11-22T12:07:55;102898.03;;;10.71;81.27
64908;BME280;69061;52.236;5.188;2023-11-22T12:10:21;102894.78;;;10.83;79.33
64908;BME280;69061;52.236;5.188;2023-11-22T12:12:49;102891.03;;;10.84;79.02
64908;BME280;69061;52.236;5.188;2023-11-22T12:15:17;102898.53;;;10.91;78.05
64908;BME280;69061;52.236;5.188;2023-11-22T12:17:44;102904.16;;;11.07;78.87
64908;BME280;69061;52.236;5.188;2023-11-22T12:20:12;102885.31;;;11.29;79.07
64908;BME280;69061;52.236;5.188;2023-11-22T12:22:41;102882.50;;;11.35;78.60
64908;BME280;69061;52.236;5.188;2023-11-22T12:25:08;102874.78;;;11.51;78.77
64908;BME280;69061;52.236;5.188;2023-11-22T12:27:39;102876.19;;;11.48;76.69
64908;BME280;69061;52.236;5.188;2023-11-22T12:30:07;102870.44;;;11.37;76.76
64908;BME280;69061;52.236;5.188;2023-11-22T12:32:34;102856.06;;;11.21;75.52
64908;BME280;69061;52.236;5.188;2023-11-22T12:35:07;102871.28;;;11.11;73.68
64908;BME280;69061;52.236;5.188;2023-11-22T12:37:34;102872.19;;;11.24;77.28
64908;BME280;69061;52.236;5.188;2023-11-22T12:40:22;102861.63;;;11.45;74.57
64908;BME280;69061;52.236;5.188;2023-11-22T12:42:49;102854.72;;;11.53;75.99
64908;BME280;69061;52.236;5.188;2023-11-22T12:45:19;102857.34;;;11.62;76.87
64908;BME280;69061;52.236;5.188;2023-11-22T12:47:46;102855.66;;;11.57;75.39
64908;BME280;69061;52.236;5.188;2023-11-22T12:50:29;102847.13;;;11.34;76.08
64908;BME280;69061;52.236;5.188;2023-11-22T12:52:56;102837.41;;;11.29;75.97
64908;BME280;69061;52.236;5.188;2023-11-22T12:55:24;102832.72;;;11.35;77.78
64908;BME280;69061;52.236;5.188;2023-11-22T12:57:57;102844.09;;;11.44;77.87
64908;BME280;69061;52.236;5.188;2023-11-22T13:00:28;102824.69;;;11.44;76.38
64908;BME280;69061;52.236;5.188;2023-11-22T13:02:55;102830.06;;;11.35;74.91
64908;BME280;69061;52.236;5.188;2023-11-22T13:05:22;102816.59;;;11.32;75.01